sensor_id;sensor_type;location;lat;lon;timestamp;temperature;humidity
70170;DHT22;57543;45.442;9.212;2022-09-01T00:00:11;26.08;62.86
70170;DHT22;57543;45.442;9.212;2022-09-01T00:03:19;26.03;62.90
70170;DHT22;57543;45.442;9.212;2022-09-01T00:06:25;25.98;63.07
70170;DHT22;57543;45.442;9.212;2022-09-01T00:09:29;26.01;62.72
70170;DHT22;57543;45.442;9.212;2022-09-01T00:12:33;25.89;62.89
70170;DHT22;57543;45.442;9.212;2022-09-01T00:15:38;25.73;63.54
70170;DHT22;57543;45.442;9.212;2022-09-01T00:18:43;25.75;63.65
70170;DHT22;57543;45.442;9.212;2022-09-01T00:21:49;25.79;63.43
70170;DHT22;57543;45.442;9.212;2022-09-01T00:24:52;25.79;63.38
70170;DHT22;57543;45.442;9.212;2022-09-01T00:27:56;25.77;63.50
70170;DHT22;57543;45.442;9.212;2022-09-01T00:31:04;25.70;63.78
70170;DHT22;57543;45.442;9.212;2022-09-01T00:34:08;25.63;64.08
70170;DHT22;57543;45.442;9.212;2022-09-01T00:37:12;25.67;64.14
70170;DHT22;57543;45.442;9.212;2022-09-01T00:40:16;25.75;64.05
70170;DHT22;57543;45.442;9.212;2022-09-01T00:43:23;25.84;63.92
70170;DHT22;57543;45.442;9.212;2022-09-01T00:46:45;25.92;63.59
70170;DHT22;57543;45.442;9.212;2022-09-01T00:49:52;26.00;63.46
70170;DHT22;57543;45.442;9.212;2022-09-01T00:52:56;26.07;63.24
70170;DHT22;57543;45.442;9.212;2022-09-01T00:56:01;26.10;63.10
70170;DHT22;57543;45.442;9.212;2022-09-01T00:59:06;26.11;63.05
70170;DHT22;57543;45.442;9.212;2022-09-01T01:02:10;26.10;63.01
70170;DHT22;57543;45.442;9.212;2022-09-01T01:05:15;26.13;62.85
70170;DHT22;57543;45.442;9.212;2022-09-01T01:08:23;26.10;62.88
70170;DHT22;57543;45.442;9.212;2022-09-01T01:11:36;26.14;62.69
70170;DHT22;57543;45.442;9.212;2022-09-01T01:14:40;26.04;62.97
70170;DHT22;57543;45.442;9.212;2022-09-01T01:17:44;26.05;62.80
70170;DHT22;57543;45.442;9.212;2022-09-01T01:20:59;26.01;62.73
70170;DHT22;57543;45.442;9.212;2022-09-01T01:24:32;25.98;62.68
70170;DHT22;57543;45.442;9.212;2022-09-01T01:27:37;25.94;62.74
70170;DHT22;57543;45.442;9.212;2022-09-01T01:30:47;25.97;62.62
70170;DHT22;57543;45.442;9.212;2022-09-01T01:33:55;26.00;62.50
70170;DHT22;57543;45.442;9.212;2022-09-01T01:36:59;26.00;62.35
70170;DHT22;57543;45.442;9.212;2022-09-01T01:40:04;26.00;62.10
70170;DHT22;57543;45.442;9.212;2022-09-01T01:43:08;25.98;62.00
70170;DHT22;57543;45.442;9.212;2022-09-01T01:46:14;25.97;61.69
70170;DHT22;57543;45.442;9.212;2022-09-01T01:49:23;25.92;61.47
70170;DHT22;57543;45.442;9.212;2022-09-01T01:52:28;25.87;61.56
70170;DHT22;57543;45.442;9.212;2022-09-01T01:55:32;25.90;61.30
70170;DHT22;57543;45.442;9.212;2022-09-01T01:58:37;25.87;61.30
70170;DHT22;57543;45.442;9.212;2022-09-01T02:01:47;25.86;61.20
70170;DHT22;57543;45.442;9.212;2022-09-01T02:04:51;25.90;60.72
70170;DHT22;57543;45.442;9.212;2022-09-01T02:08:02;25.92;60.54
70170;DHT22;57543;45.442;9.212;2022-09-01T02:11:07;25.90;60.40
70170;DHT22;57543;45.442;9.212;2022-09-01T02:14:11;25.87;60.71
70170;DHT22;57543;45.442;9.212;2022-09-01T02:17:17;25.92;60.39
70170;DHT22;57543;45.442;9.212;2022-09-01T02:20:21;25.96;60.13
70170;DHT22;57543;45.442;9.212;2022-09-01T02:23:27;25.82;60.34
70170;DHT22;57543;45.442;9.212;2022-09-01T02:26:36;25.79;59.84
70170;DHT22;57543;45.442;9.212;2022-09-01T02:29:41;25.83;59.50
70170;DHT22;57543;45.442;9.212;2022-09-01T02:32:44;25.92;59.59
70170;DHT22;57543;45.442;9.212;2022-09-01T02:35:52;25.76;60.01
70170;DHT22;57543;45.442;9.212;2022-09-01T02:38:56;25.70;60.56
70170;DHT22;57543;45.442;9.212;2022-09-01T02:42:01;25.56;61.27
70170;DHT22;57543;45.442;9.212;2022-09-01T02:45:06;25.56;61.62
70170;DHT22;57543;45.442;9.212;2022-09-01T02:48:18;25.43;62.04
70170;DHT22;57543;45.442;9.212;2022-09-01T02:51:24;25.38;62.39
70170;DHT22;57543;45.442;9.212;2022-09-01T02:54:31;25.52;62.19
70170;DHT22;57543;45.442;9.212;2022-09-01T02:57:35;25.59;62.05
70170;DHT22;57543;45.442;9.212;2022-09-01T03:00:39;25.67;61.79
70170;DHT22;57543;45.442;9.212;2022-09-01T03:03:43;25.72;61.54
70170;DHT22;57543;45.442;9.212;2022-09-01T03:06:47;25.76;61.26
70170;DHT22;57543;45.442;9.212;2022-09-01T03:09:52;25.86;60.92
70170;DHT22;57543;45.442;9.212;2022-09-01T03:12:58;25.92;60.62
70170;DHT22;57543;45.442;9.212;2022-09-01T03:16:03;25.83;60.53
70170;DHT22;57543;45.442;9.212;2022-09-01T03:19:08;25.86;60.54
70170;DHT22;57543;45.442;9.212;2022-09-01T03:22:13;25.84;60.15
70170;DHT22;57543;45.442;9.212;2022-09-01T03:25:18;25.82;59.96
70170;DHT22;57543;45.442;9.212;2022-09-01T03:28:22;25.73;60.39
70170;DHT22;57543;45.442;9.212;2022-09-01T03:31:26;25.72;60.16
70170;DHT22;57543;45.442;9.212;2022-09-01T03:34:31;25.66;60.28
70170;DHT22;57543;45.442;9.212;2022-09-01T03:37:37;25.65;60.34
70170;DHT22;57543;45.442;9.212;2022-09-01T03:40:42;25.63;60.38
70170;DHT22;57543;45.442;9.212;2022-09-01T03:43:47;25.62;60.35
70170;DHT22;57543;45.442;9.212;2022-09-01T03:46:51;25.55;60.55
70170;DHT22;57543;45.442;9.212;2022-09-01T03:49:55;25.55;60.53
70170;DHT22;57543;45.442;9.212;2022-09-01T03:52:59;25.56;60.42
70170;DHT22;57543;45.442;9.212;2022-09-01T03:56:04;25.58;60.31
70170;DHT22;57543;45.442;9.212;2022-09-01T03:59:09;25.69;59.89
70170;DHT22;57543;45.442;9.212;2022-09-01T04:02:19;25.61;60.28
70170;DHT22;57543;45.442;9.212;2022-09-01T04:05:24;25.62;60.22
70170;DHT22;57543;45.442;9.212;2022-09-01T04:08:31;25.67;60.12
70170;DHT22;57543;45.442;9.212;2022-09-01T04:11:37;25.70;59.96
70170;DHT22;57543;45.442;9.212;2022-09-01T04:14:41;25.79;59.83
70170;DHT22;57543;45.442;9.212;2022-09-01T04:17:45;25.77;59.89
70170;DHT22;57543;45.442;9.212;2022-09-01T04:21:08;25.79;59.86
70170;DHT22;57543;45.442;9.212;2022-09-01T04:24:13;25.82;59.70
70170;DHT22;57543;45.442;9.212;2022-09-01T04:27:17;25.79;59.68
70170;DHT22;57543;45.442;9.212;2022-09-01T04:30:29;25.82;59.51
70170;DHT22;57543;45.442;9.212;2022-09-01T04:33:36;25.83;59.55
70170;DHT22;57543;45.442;9.212;2022-09-01T04:36:44;25.79;59.58
70170;DHT22;57543;45.442;9.212;2022-09-01T04:39:50;25.80;59.49
70170;DHT22;57543;45.442;9.212;2022-09-01T04:42:54;25.77;59.48
70170;DHT22;57543;45.442;9.212;2022-09-01T04:45:58;25.75;59.46
70170;DHT22;57543;45.442;9.212;2022-09-01T04:49:04;25.72;59.63
70170;DHT22;57543;45.442;9.212;2022-09-01T04:52:12;25.67;59.85
70170;DHT22;57543;45.442;9.212;2022-09-01T04:55:16;25.67;59.96
70170;DHT22;57543;45.442;9.212;2022-09-01T04:58:20;25.65;60.11
70170;DHT22;57543;45.442;9.212;2022-09-01T05:01:25;25.63;60.16
70170;DHT22;57543;45.442;9.212;2022-09-01T05:04:31;25.67;60.27
70170;DHT22;57543;45.442;9.212;2022-09-01T05:07:37;25.69;60.45
70170;DHT22;57543;45.442;9.212;2022-09-01T05:10:43;25.72;60.58
70170;DHT22;57543;45.442;9.212;2022-09-01T05:13:54;25.72;60.76
70170;DHT22;57543;45.442;9.212;2022-09-01T05:16:59;25.69;61.08
70170;DHT22;57543;45.442;9.212;2022-09-01T05:20:05;25.72;61.19
70170;DHT22;57543;45.442;9.212;2022-09-01T05:23:11;25.69;61.24
70170;DHT22;57543;45.442;9.212;2022-09-01T05:26:20;25.73;61.30
70170;DHT22;57543;45.442;9.212;2022-09-01T05:29:25;25.70;61.47
70170;DHT22;57543;45.442;9.212;2022-09-01T05:32:30;25.72;61.52
70170;DHT22;57543;45.442;9.212;2022-09-01T05:35:39;25.75;61.64
70170;DHT22;57543;45.442;9.212;2022-09-01T05:38:48;25.76;61.77
70170;DHT22;57543;45.442;9.212;2022-09-01T05:41:53;25.76;61.96
70170;DHT22;57543;45.442;9.212;2022-09-01T05:44:57;25.83;61.73
70170;DHT22;57543;45.442;9.212;2022-09-01T05:48:01;25.83;61.10
70170;DHT22;57543;45.442;9.212;2022-09-01T05:51:06;25.83;61.17
70170;DHT22;57543;45.442;9.212;2022-09-01T05:54:11;25.75;60.93
70170;DHT22;57543;45.442;9.212;2022-09-01T05:57:14;25.76;60.39
70170;DHT22;57543;45.442;9.212;2022-09-01T06:00:18;25.67;60.32
70170;DHT22;57543;45.442;9.212;2022-09-01T06:03:25;25.76;58.98
70170;DHT22;57543;45.442;9.212;2022-09-01T06:06:39;25.73;58.27
70170;DHT22;57543;45.442;9.212;2022-09-01T06:09:46;25.66;58.92
70170;DHT22;57543;45.442;9.212;2022-09-01T06:12:50;25.66;58.10
70170;DHT22;57543;45.442;9.212;2022-09-01T06:15:54;25.66;58.14
70170;DHT22;57543;45.442;9.212;2022-09-01T06:19:02;25.65;58.06
70170;DHT22;57543;45.442;9.212;2022-09-01T06:22:07;25.65;57.69
70170;DHT22;57543;45.442;9.212;2022-09-01T06:25:14;25.59;58.00
70170;DHT22;57543;45.442;9.212;2022-09-01T06:28:22;25.56;58.09
70170;DHT22;57543;45.442;9.212;2022-09-01T06:31:29;25.56;58.37
70170;DHT22;57543;45.442;9.212;2022-09-01T06:34:43;25.75;58.09
70170;DHT22;57543;45.442;9.212;2022-09-01T06:37:47;25.87;57.15
70170;DHT22;57543;45.442;9.212;2022-09-01T06:41:07;25.75;57.42
70170;DHT22;57543;45.442;9.212;2022-09-01T06:44:14;25.75;57.46
70170;DHT22;57543;45.442;9.212;2022-09-01T06:47:25;25.73;57.44
70170;DHT22;57543;45.442;9.212;2022-09-01T06:50:49;25.70;58.23
70170;DHT22;57543;45.442;9.212;2022-09-01T06:53:54;25.79;57.80
70170;DHT22;57543;45.442;9.212;2022-09-01T06:57:07;25.87;57.50
70170;DHT22;57543;45.442;9.212;2022-09-01T07:00:12;25.93;57.84
70170;DHT22;57543;45.442;9.212;2022-09-01T07:03:20;26.14;57.26
70170;DHT22;57543;45.442;9.212;2022-09-01T07:06:52;26.32;56.93
70170;DHT22;57543;45.442;9.212;2022-09-01T07:10:17;26.39;56.15
70170;DHT22;57543;45.442;9.212;2022-09-01T07:13:30;26.49;56.51
70170;DHT22;57543;45.442;9.212;2022-09-01T07:16:36;26.56;56.31
70170;DHT22;57543;45.442;9.212;2022-09-01T07:19:44;26.63;56.31
70170;DHT22;57543;45.442;9.212;2022-09-01T07:22:52;26.63;56.49
70170;DHT22;57543;45.442;9.212;2022-09-01T07:25:56;26.60;56.20
70170;DHT22;57543;45.442;9.212;2022-09-01T07:29:06;26.62;56.35
70170;DHT22;57543;45.442;9.212;2022-09-01T07:32:10;26.63;56.07
70170;DHT22;57543;45.442;9.212;2022-09-01T07:35:17;26.55;56.23
70170;DHT22;57543;45.442;9.212;2022-09-01T07:38:24;26.51;56.75
70170;DHT22;57543;45.442;9.212;2022-09-01T07:41:28;26.56;56.68
70170;DHT22;57543;45.442;9.212;2022-09-01T07:44:50;26.60;56.77
70170;DHT22;57543;45.442;9.212;2022-09-01T07:48:15;26.62;56.36
70170;DHT22;57543;45.442;9.212;2022-09-01T07:51:24;26.66;56.47
70170;DHT22;57543;45.442;9.212;2022-09-01T07:54:29;26.79;56.60
70170;DHT22;57543;45.442;9.212;2022-09-01T07:57:34;26.86;56.53
70170;DHT22;57543;45.442;9.212;2022-09-01T08:00:39;26.89;56.55
70170;DHT22;57543;45.442;9.212;2022-09-01T08:03:47;26.87;56.50
70170;DHT22;57543;45.442;9.212;2022-09-01T08:06:52;26.87;56.42
70170;DHT22;57543;45.442;9.212;2022-09-01T08:09:56;26.84;56.99
70170;DHT22;57543;45.442;9.212;2022-09-01T08:13:00;26.62;57.47
70170;DHT22;57543;45.442;9.212;2022-09-01T08:16:05;26.62;57.70
70170;DHT22;57543;45.442;9.212;2022-09-01T08:19:09;26.60;57.82
70170;DHT22;57543;45.442;9.212;2022-09-01T08:22:34;26.69;58.17
70170;DHT22;57543;45.442;9.212;2022-09-01T08:25:46;26.75;57.96
70170;DHT22;57543;45.442;9.212;2022-09-01T08:28:51;26.82;57.83
70170;DHT22;57543;45.442;9.212;2022-09-01T08:32:01;26.78;58.06
70170;DHT22;57543;45.442;9.212;2022-09-01T08:35:06;26.90;57.68
70170;DHT22;57543;45.442;9.212;2022-09-01T08:38:10;26.89;58.02
70170;DHT22;57543;45.442;9.212;2022-09-01T08:45:32;27.11;57.93
70170;DHT22;57543;45.442;9.212;2022-09-01T08:51:36;27.59;56.88
70170;DHT22;57543;45.442;9.212;2022-09-01T08:57:51;27.86;56.46
70170;DHT22;57543;45.442;9.212;2022-09-01T09:01:04;27.82;56.42
70170;DHT22;57543;45.442;9.212;2022-09-01T09:04:13;27.82;56.24
70170;DHT22;57543;45.442;9.212;2022-09-01T09:17:02;28.25;55.03
70170;DHT22;57543;45.442;9.212;2022-09-01T09:20:07;28.34;55.14
70170;DHT22;57543;45.442;9.212;2022-09-01T09:23:23;28.38;54.93
70170;DHT22;57543;45.442;9.212;2022-09-01T09:26:30;28.37;54.22
70170;DHT22;57543;45.442;9.212;2022-09-01T09:29:33;28.34;53.86
70170;DHT22;57543;45.442;9.212;2022-09-01T09:32:56;28.32;54.15
70170;DHT22;57543;45.442;9.212;2022-09-01T09:36:21;28.24;54.06
70170;DHT22;57543;45.442;9.212;2022-09-01T09:39:25;28.37;54.33
70170;DHT22;57543;45.442;9.212;2022-09-01T09:42:29;28.55;54.15
70170;DHT22;57543;45.442;9.212;2022-09-01T09:45:36;28.65;53.69
70170;DHT22;57543;45.442;9.212;2022-09-01T09:48:40;28.68;53.19
70170;DHT22;57543;45.442;9.212;2022-09-01T09:51:47;28.62;53.71
70170;DHT22;57543;45.442;9.212;2022-09-01T09:55:04;28.56;54.28
70170;DHT22;57543;45.442;9.212;2022-09-01T09:58:10;28.53;54.31
70170;DHT22;57543;45.442;9.212;2022-09-01T10:04:37;28.72;52.99
70170;DHT22;57543;45.442;9.212;2022-09-01T10:07:41;28.72;52.70
70170;DHT22;57543;45.442;9.212;2022-09-01T10:10:47;28.94;53.18
70170;DHT22;57543;45.442;9.212;2022-09-01T10:13:52;29.08;52.45
70170;DHT22;57543;45.442;9.212;2022-09-01T10:17:00;29.21;51.28
70170;DHT22;57543;45.442;9.212;2022-09-01T10:20:10;29.22;51.05
70170;DHT22;57543;45.442;9.212;2022-09-01T10:23:15;29.30;51.30
70170;DHT22;57543;45.442;9.212;2022-09-01T10:26:34;29.18;50.62
70170;DHT22;57543;45.442;9.212;2022-09-01T10:29:43;29.17;50.29
70170;DHT22;57543;45.442;9.212;2022-09-01T10:32:51;29.20;50.70
70170;DHT22;57543;45.442;9.212;2022-09-01T10:35:57;29.20;50.96
70170;DHT22;57543;45.442;9.212;2022-09-01T10:39:02;29.17;51.14
70170;DHT22;57543;45.442;9.212;2022-09-01T10:42:16;29.11;51.77
70170;DHT22;57543;45.442;9.212;2022-09-01T10:45:33;29.14;51.66
70170;DHT22;57543;45.442;9.212;2022-09-01T10:48:37;29.18;51.18
70170;DHT22;57543;45.442;9.212;2022-09-01T10:51:43;29.32;50.24
70170;DHT22;57543;45.442;9.212;2022-09-01T10:54:59;29.49;50.08
70170;DHT22;57543;45.442;9.212;2022-09-01T11:01:11;29.83;49.78
70170;DHT22;57543;45.442;9.212;2022-09-01T11:04:20;29.97;49.18
70170;DHT22;57543;45.442;9.212;2022-09-01T11:07:32;30.06;49.03
70170;DHT22;57543;45.442;9.212;2022-09-01T11:14:20;30.46;48.35
70170;DHT22;57543;45.442;9.212;2022-09-01T11:17:31;30.66;47.74
70170;DHT22;57543;45.442;9.212;2022-09-01T11:20:38;30.80;46.55
70170;DHT22;57543;45.442;9.212;2022-09-01T11:23:43;30.93;46.32
70170;DHT22;57543;45.442;9.212;2022-09-01T11:26:48;31.04;46.25
70170;DHT22;57543;45.442;9.212;2022-09-01T11:29:58;31.16;45.80
70170;DHT22;57543;45.442;9.212;2022-09-01T11:39:59;30.54;46.26
70170;DHT22;57543;45.442;9.212;2022-09-01T11:43:10;30.24;46.49
70170;DHT22;57543;45.442;9.212;2022-09-01T11:46:25;30.03;47.42
70170;DHT22;57543;45.442;9.212;2022-09-01T11:49:36;29.96;48.28
70170;DHT22;57543;45.442;9.212;2022-09-01T11:52:42;29.79;48.77
70170;DHT22;57543;45.442;9.212;2022-09-01T11:55:56;29.58;49.35
70170;DHT22;57543;45.442;9.212;2022-09-01T11:59:29;29.52;50.07
70170;DHT22;57543;45.442;9.212;2022-09-01T12:02:35;29.48;49.76
70170;DHT22;57543;45.442;9.212;2022-09-01T12:05:38;29.42;49.66
70170;DHT22;57543;45.442;9.212;2022-09-01T12:08:51;29.37;48.95
70170;DHT22;57543;45.442;9.212;2022-09-01T12:11:56;29.32;49.27
70170;DHT22;57543;45.442;9.212;2022-09-01T12:21:30;29.35;48.96
70170;DHT22;57543;45.442;9.212;2022-09-01T12:24:34;29.38;49.35
70170;DHT22;57543;45.442;9.212;2022-09-01T12:27:38;29.45;49.25
70170;DHT22;57543;45.442;9.212;2022-09-01T12:30:42;29.48;48.97
70170;DHT22;57543;45.442;9.212;2022-09-01T12:33:47;29.41;48.57
70170;DHT22;57543;45.442;9.212;2022-09-01T12:37:20;29.44;48.55
70170;DHT22;57543;45.442;9.212;2022-09-01T12:40:30;29.54;47.86
70170;DHT22;57543;45.442;9.212;2022-09-01T12:43:38;29.72;47.99
70170;DHT22;57543;45.442;9.212;2022-09-01T12:46:44;29.97;45.89
70170;DHT22;57543;45.442;9.212;2022-09-01T12:49:48;30.24;44.86
70170;DHT22;57543;45.442;9.212;2022-09-01T12:53:15;30.42;44.33
70170;DHT22;57543;45.442;9.212;2022-09-01T12:56:28;30.34;44.57
70170;DHT22;57543;45.442;9.212;2022-09-01T12:59:33;30.23;44.61
70170;DHT22;57543;45.442;9.212;2022-09-01T13:02:47;30.14;44.81
70170;DHT22;57543;45.442;9.212;2022-09-01T13:05:54;30.07;44.93
70170;DHT22;57543;45.442;9.212;2022-09-01T13:08:58;30.20;44.09
70170;DHT22;57543;45.442;9.212;2022-09-01T13:12:16;30.34;43.37
70170;DHT22;57543;45.442;9.212;2022-09-01T13:15:21;30.35;43.48
70170;DHT22;57543;45.442;9.212;2022-09-01T13:18:25;30.38;43.97
70170;DHT22;57543;45.442;9.212;2022-09-01T13:21:30;30.38;44.09
70170;DHT22;57543;45.442;9.212;2022-09-01T13:24:34;30.44;44.24
70170;DHT22;57543;45.442;9.212;2022-09-01T13:27:39;30.48;44.25
70170;DHT22;57543;45.442;9.212;2022-09-01T13:30:52;30.63;43.47
70170;DHT22;57543;45.442;9.212;2022-09-01T13:33:57;30.76;43.82
70170;DHT22;57543;45.442;9.212;2022-09-01T13:37:01;30.84;43.91
70170;DHT22;57543;45.442;9.212;2022-09-01T13:40:05;30.89;43.24
70170;DHT22;57543;45.442;9.212;2022-09-01T13:43:21;30.84;42.99
70170;DHT22;57543;45.442;9.212;2022-09-01T13:46:25;30.80;42.73
70170;DHT22;57543;45.442;9.212;2022-09-01T13:49:28;30.83;42.79
70170;DHT22;57543;45.442;9.212;2022-09-01T13:52:32;31.00;42.57
70170;DHT22;57543;45.442;9.212;2022-09-01T13:55:40;31.14;42.40
70170;DHT22;57543;45.442;9.212;2022-09-01T13:58:44;31.28;42.27
70170;DHT22;57543;45.442;9.212;2022-09-01T14:01:48;31.31;41.63
70170;DHT22;57543;45.442;9.212;2022-09-01T14:04:54;31.31;41.47
70170;DHT22;57543;45.442;9.212;2022-09-01T14:07:59;31.38;41.46
70170;DHT22;57543;45.442;9.212;2022-09-01T14:11:03;31.44;40.80
70170;DHT22;57543;45.442;9.212;2022-09-01T14:14:07;31.51;40.80
70170;DHT22;57543;45.442;9.212;2022-09-01T14:17:12;31.51;40.55
70170;DHT22;57543;45.442;9.212;2022-09-01T14:20:22;31.52;40.35
70170;DHT22;57543;45.442;9.212;2022-09-01T14:23:26;31.49;39.84
70170;DHT22;57543;45.442;9.212;2022-09-01T14:26:30;31.30;40.14
70170;DHT22;57543;45.442;9.212;2022-09-01T14:29:33;31.04;40.76
70170;DHT22;57543;45.442;9.212;2022-09-01T14:32:38;30.94;41.01
70170;DHT22;57543;45.442;9.212;2022-09-01T14:35:46;31.01;40.87
70170;DHT22;57543;45.442;9.212;2022-09-01T14:38:51;31.13;40.41
70170;DHT22;57543;45.442;9.212;2022-09-01T14:41:55;31.06;40.75
70170;DHT22;57543;45.442;9.212;2022-09-01T14:44:58;31.07;40.84
70170;DHT22;57543;45.442;9.212;2022-09-01T14:48:04;31.10;39.85
70170;DHT22;57543;45.442;9.212;2022-09-01T14:51:18;31.06;39.89
70170;DHT22;57543;45.442;9.212;2022-09-01T14:54:41;31.13;40.29
70170;DHT22;57543;45.442;9.212;2022-09-01T14:57:44;31.14;40.62
70170;DHT22;57543;45.442;9.212;2022-09-01T15:00:48;31.17;40.44
70170;DHT22;57543;45.442;9.212;2022-09-01T15:03:52;31.25;40.28
70170;DHT22;57543;45.442;9.212;2022-09-01T15:06:57;31.34;39.72
70170;DHT22;57543;45.442;9.212;2022-09-01T15:10:01;31.24;39.86
70170;DHT22;57543;45.442;9.212;2022-09-01T15:13:04;31.01;39.72
70170;DHT22;57543;45.442;9.212;2022-09-01T15:16:14;30.71;40.39
70170;DHT22;57543;45.442;9.212;2022-09-01T15:19:19;30.76;40.11
70170;DHT22;57543;45.442;9.212;2022-09-01T15:22:23;30.82;40.38
70170;DHT22;57543;45.442;9.212;2022-09-01T15:25:27;30.93;40.06
70170;DHT22;57543;45.442;9.212;2022-09-01T15:28:30;30.99;39.63
70170;DHT22;57543;45.442;9.212;2022-09-01T15:31:34;30.94;39.16
70170;DHT22;57543;45.442;9.212;2022-09-01T15:34:38;30.93;39.09
70170;DHT22;57543;45.442;9.212;2022-09-01T15:37:42;30.89;39.46
70170;DHT22;57543;45.442;9.212;2022-09-01T15:40:47;30.93;39.65
70170;DHT22;57543;45.442;9.212;2022-09-01T15:43:52;30.97;39.58
70170;DHT22;57543;45.442;9.212;2022-09-01T15:46:55;30.94;39.42
70170;DHT22;57543;45.442;9.212;2022-09-01T15:49:59;30.73;39.70
70170;DHT22;57543;45.442;9.212;2022-09-01T15:53:04;30.55;39.95
70170;DHT22;57543;45.442;9.212;2022-09-01T15:56:10;30.37;40.00
70170;DHT22;57543;45.442;9.212;2022-09-01T15:59:14;30.21;40.44
70170;DHT22;57543;45.442;9.212;2022-09-01T16:02:18;30.13;40.78
70170;DHT22;57543;45.442;9.212;2022-09-01T16:05:24;30.03;41.13
70170;DHT22;57543;45.442;9.212;2022-09-01T16:08:28;30.07;41.16
70170;DHT22;57543;45.442;9.212;2022-09-01T16:11:32;30.01;41.21
70170;DHT22;57543;45.442;9.212;2022-09-01T16:14:37;29.93;41.50
70170;DHT22;57543;45.442;9.212;2022-09-01T16:18:07;29.97;41.48
70170;DHT22;57543;45.442;9.212;2022-09-01T16:21:22;29.92;41.64
70170;DHT22;57543;45.442;9.212;2022-09-01T16:24:26;29.75;42.19
70170;DHT22;57543;45.442;9.212;2022-09-01T16:27:34;29.76;42.21
70170;DHT22;57543;45.442;9.212;2022-09-01T16:30:38;29.69;42.39
70170;DHT22;57543;45.442;9.212;2022-09-01T16:33:54;29.47;42.48
70170;DHT22;57543;45.442;9.212;2022-09-01T16:37:06;29.42;42.62
70170;DHT22;57543;45.442;9.212;2022-09-01T16:47:40;29.04;43.46
70170;DHT22;57543;45.442;9.212;2022-09-01T16:51:23;28.94;43.12
70170;DHT22;57543;45.442;9.212;2022-09-01T16:57:51;28.84;43.70
70170;DHT22;57543;45.442;9.212;2022-09-01T17:07:48;28.77;43.43
70170;DHT22;57543;45.442;9.212;2022-09-01T17:10:54;28.70;43.83
70170;DHT22;57543;45.442;9.212;2022-09-01T17:14:00;28.69;43.75
70170;DHT22;57543;45.442;9.212;2022-09-01T17:17:14;28.62;43.96
70170;DHT22;57543;45.442;9.212;2022-09-01T17:20:24;28.69;43.89
70170;DHT22;57543;45.442;9.212;2022-09-01T17:23:35;28.66;44.07
70170;DHT22;57543;45.442;9.212;2022-09-01T17:26:40;28.60;44.17
70170;DHT22;57543;45.442;9.212;2022-09-01T17:29:49;28.47;44.52
70170;DHT22;57543;45.442;9.212;2022-09-01T17:41:19;28.47;45.40
70170;DHT22;57543;45.442;9.212;2022-09-01T17:44:37;28.37;45.83
70170;DHT22;57543;45.442;9.212;2022-09-01T17:48:14;28.32;46.44
70170;DHT22;57543;45.442;9.212;2022-09-01T17:51:37;28.25;47.01
70170;DHT22;57543;45.442;9.212;2022-09-01T17:58:11;28.14;47.47
70170;DHT22;57543;45.442;9.212;2022-09-01T18:01:33;28.06;47.64
70170;DHT22;57543;45.442;9.212;2022-09-01T18:08:19;28.00;48.19
70170;DHT22;57543;45.442;9.212;2022-09-01T18:11:34;27.96;48.37
70170;DHT22;57543;45.442;9.212;2022-09-01T18:18:40;27.87;48.72
70170;DHT22;57543;45.442;9.212;2022-09-01T18:21:25;27.92;48.38
70170;DHT22;57543;45.442;9.212;2022-09-01T18:24:37;27.87;48.42
70170;DHT22;57543;45.442;9.212;2022-09-01T18:27:45;27.74;48.55
70170;DHT22;57543;45.442;9.212;2022-09-01T18:38:03;27.53;48.51
70170;DHT22;57543;45.442;9.212;2022-09-01T18:54:55;27.45;47.60
70170;DHT22;57543;45.442;9.212;2022-09-01T18:58:10;27.44;47.18
70170;DHT22;57543;45.442;9.212;2022-09-01T19:01:32;27.37;47.19
70170;DHT22;57543;45.442;9.212;2022-09-01T19:04:39;27.33;46.95
70170;DHT22;57543;45.442;9.212;2022-09-01T19:14:41;27.24;46.29
70170;DHT22;57543;45.442;9.212;2022-09-01T19:18:01;27.11;46.48
70170;DHT22;57543;45.442;9.212;2022-09-01T19:27:30;26.96;47.03
70170;DHT22;57543;45.442;9.212;2022-09-01T19:30:39;26.94;47.05
70170;DHT22;57543;45.442;9.212;2022-09-01T19:33:48;27.01;46.68
70170;DHT22;57543;45.442;9.212;2022-09-01T19:36:58;26.94;47.12
70170;DHT22;57543;45.442;9.212;2022-09-01T19:40:03;26.93;47.20
70170;DHT22;57543;45.442;9.212;2022-09-01T19:43:11;27.03;46.84
70170;DHT22;57543;45.442;9.212;2022-09-01T19:46:38;26.91;47.08
70170;DHT22;57543;45.442;9.212;2022-09-01T19:53:41;26.68;47.75
70170;DHT22;57543;45.442;9.212;2022-09-01T19:57:16;26.76;47.59
70170;DHT22;57543;45.442;9.212;2022-09-01T20:03:39;26.59;48.04
70170;DHT22;57543;45.442;9.212;2022-09-01T20:06:47;26.49;48.44
70170;DHT22;57543;45.442;9.212;2022-09-01T20:10:01;26.53;48.26
70170;DHT22;57543;45.442;9.212;2022-09-01T20:16:40;26.46;48.45
70170;DHT22;57543;45.442;9.212;2022-09-01T20:23:01;26.41;47.90
70170;DHT22;57543;45.442;9.212;2022-09-01T20:29:44;26.44;47.23
70170;DHT22;57543;45.442;9.212;2022-09-01T20:36:18;26.42;47.00
70170;DHT22;57543;45.442;9.212;2022-09-01T20:43:15;26.27;47.26
70170;DHT22;57543;45.442;9.212;2022-09-01T20:46:23;26.24;47.52
70170;DHT22;57543;45.442;9.212;2022-09-01T20:49:30;26.24;47.57
70170;DHT22;57543;45.442;9.212;2022-09-01T20:52:50;26.13;47.88
70170;DHT22;57543;45.442;9.212;2022-09-01T20:56:02;26.22;47.56
70170;DHT22;57543;45.442;9.212;2022-09-01T20:59:31;26.24;47.42
70170;DHT22;57543;45.442;9.212;2022-09-01T21:09:19;26.01;48.15
70170;DHT22;57543;45.442;9.212;2022-09-01T21:20:11;25.96;48.56
70170;DHT22;57543;45.442;9.212;2022-09-01T21:23:16;25.97;48.53
70170;DHT22;57543;45.442;9.212;2022-09-01T21:26:22;25.98;47.95
70170;DHT22;57543;45.442;9.212;2022-09-01T21:32:55;25.84;48.19
70170;DHT22;57543;45.442;9.212;2022-09-01T21:36:00;25.76;48.35
70170;DHT22;57543;45.442;9.212;2022-09-01T21:39:04;25.66;48.84
70170;DHT22;57543;45.442;9.212;2022-09-01T21:42:08;25.76;48.69
70170;DHT22;57543;45.442;9.212;2022-09-01T21:45:17;25.70;48.77
70170;DHT22;57543;45.442;9.212;2022-09-01T21:48:37;25.65;48.91
70170;DHT22;57543;45.442;9.212;2022-09-01T21:51:44;25.65;48.98
70170;DHT22;57543;45.442;9.212;2022-09-01T21:54:48;25.69;48.96
70170;DHT22;57543;45.442;9.212;2022-09-01T21:57:52;25.58;49.18
70170;DHT22;57543;45.442;9.212;2022-09-01T22:00:56;25.56;49.45
70170;DHT22;57543;45.442;9.212;2022-09-01T22:04:00;25.67;49.27
70170;DHT22;57543;45.442;9.212;2022-09-01T22:07:07;25.63;49.49
70170;DHT22;57543;45.442;9.212;2022-09-01T22:10:21;25.55;49.81
70170;DHT22;57543;45.442;9.212;2022-09-01T22:13:28;25.50;50.30
70170;DHT22;57543;45.442;9.212;2022-09-01T22:16:32;25.53;50.00
70170;DHT22;57543;45.442;9.212;2022-09-01T22:19:36;25.50;50.51
70170;DHT22;57543;45.442;9.212;2022-09-01T22:22:40;25.61;50.37